Baltic Betina — 9HDW8 — position and weather

sailwx.info

Track history (hours):
 
Tides and Currents Weather Stations Pressure Air Temp Water Temp Dewpoint Dewpoint Depression Visibility Wind Speed Wind Dir Waves Ship Positions

Baltic Betina

Last reported at 2014-Sep-01 20:33 UTC. Time now 2014-Sep-01 21:28 UTC.
Position N 59°09' E 010°22'.

Length 90 m; draft 5 m.

Type: Ship. MMSI: 215869000.

Date/timePositionNaut miles runAvg speedWind from/ knotsBaromVisibWave heightAir tempDewpointWater temp
2014-Sep-01 20:33N 59°09' E 010°22'1010.4
2014-Sep-01 19:33N 59°00' E 010°13'6 5.2
2014-Sep-01 18:26N 59°02' E 010°03'2 2.6
2014-Sep-01 17:33N 59°00' E 010°04'1211.7
2014-Sep-01 16:33N 58°51' E 010°19'4112.5
2014-Sep-01 13:19N 58°17' E 010°59'912.4
2014-Sep-01 12:33N 58°08' E 011°07'1312.6
2014-Sep-01 11:33N 57°57' E 011°17'1312.8
2014-Sep-01 10:33N 57°45' E 011°27'1312.9
2014-Sep-01 09:33N 57°33' E 011°37'1312.7
2014-Sep-01 08:33N 57°22' E 011°47'1312.5
2014-Sep-01 07:33N 57°10' E 011°56'1412.5
2014-Sep-01 06:26N 56°57' E 012°03'1112.2
2014-Sep-01 05:33N 56°47' E 012°09'1211.7
2014-Sep-01 04:33N 56°35' E 012°15'1211.8
2014-Sep-01 03:33N 56°24' E 012°21'1212.1
2014-Sep-01 02:33N 56°13' E 012°28'1313.1
2014-Sep-01 01:33N 56°01' E 012°41'1212.0
2014-Sep-01 00:33N 55°49' E 012°43'1212.1
2014-Aug-31 23:33N 55°37' E 012°42'1211.8
2014-Aug-31 22:33N 55°26' E 012°42'1211.4
2014-Aug-31 21:33N 55°14' E 012°40'1211.8
2014-Aug-31 20:33N 55°08' E 012°57'1512.0
2014-Aug-31 19:15N 54°59' E 013°20'912.2
2014-Aug-31 18:33N 54°52' E 013°28'1211.8
2014-Aug-31 17:33N 54°42' E 013°39'1211.9
2014-Aug-31 16:33N 54°32' E 013°49'1211.6
2014-Aug-31 15:33N 54°22' E 013°59'1211.5
2014-Aug-31 14:33N 54°12' E 014°10'1111.2
2014-Aug-31 13:33N 54°01' E 014°15'8 7.6
2014-Aug-31 12:33N 53°54' E 014°16'0 0.0
2014-Aug-31 11:31N 53°54' E 014°16'0 0.0
2014-Aug-31 10:31N 53°54' E 014°16'3 3.6
2014-Aug-31 09:34N 53°50' E 014°18'1110.6
2014-Aug-31 08:33N 53°42' E 014°29'1210.8
2014-Aug-31 07:29N 53°32' E 014°38'5 5.9
2014-Aug-31 06:33N 53°27' E 014°35'0 0.0
2014-Aug-31 05:33N 53°27' E 014°35'0 0.0
2014-Aug-31 04:33N 53°27' E 014°35'0 0.0
2014-Aug-31 03:33N 53°27' E 014°35'0 0.0
2014-Aug-31 02:33N 53°27' E 014°35'0 0.1
2014-Aug-31 01:33N 53°27' E 014°35'6 5.8
2014-Aug-31 00:33N 53°32' E 014°38'1010.1
2014-Aug-30 23:33N 53°41' E 014°30'1010.5
2014-Aug-30 22:33N 53°49' E 014°19'7 6.6
2014-Aug-30 21:33N 53°56' E 014°17'1010.2
2014-Aug-30 20:33N 54°05' E 014°23'1211.7
2014-Aug-30 19:32N 54°14' E 014°36'1211.6
2014-Aug-30 18:30N 54°24' E 014°49'1312.0
2014-Aug-30 17:26N 54°34' E 015°03'2411.9
2014-Aug-30 15:24N 54°52' E 015°30'1011.7
2014-Aug-30 14:30N 55°01' E 015°41'14211.8
2014-Aug-30 02:28N 56°50' E 018°24'1212.1
2014-Aug-30 01:30N 56°59' E 018°38'1512.5
2014-Aug-30 00:18N 57°11' E 018°54'198 8.7
2014-Aug-29 01:32N 59°23' E 023°36'  
2014-Aug-25 04:27N 57°36' E 017°58'2412.7
2014-Aug-25 02:33N 57°14' E 017°39'2613.0
2014-Aug-25 00:31N 56°49' E 017°21'5412.7
2014-Aug-24 20:18N 56°01' E 016°38'1013.1
2014-Aug-24 19:33N 55°56' E 016°23'4412.7
2014-Aug-24 16:08N 55°35' E 015°16'713.1
2014-Aug-24 15:33N 55°31' E 015°05'1313.0
2014-Aug-24 14:33N 55°24' E 014°45'1312.9
2014-Aug-24 13:32N 55°16' E 014°27'3712.4
2014-Aug-24 10:33N 55°13' E 013°23'1413.5
2014-Aug-24 09:33N 55°14' E 012°59'1212.5
2014-Aug-24 08:34N 55°19' E 012°39'1212.1
2014-Aug-24 07:33N 55°31' E 012°42'1212.3
2014-Aug-24 06:33N 55°43' E 012°41'1212.3
2014-Aug-24 05:33N 55°55' E 012°38'1111.4
2014-Aug-24 04:33N 56°06' E 012°33'1312.6
2014-Aug-24 03:33N 56°12' E 012°13'7911.2
2014-Aug-23 20:29N 57°14' E 010°43'1112.1
2014-Aug-23 19:33N 57°25' E 010°44'155 9.7
2014-Aug-23 03:33N 58°16' E 006°09'1111.2
2014-Aug-23 02:33N 58°24' E 005°53'1111.3
2014-Aug-23 01:33N 58°32' E 005°38'1211.6
2014-Aug-23 00:33N 58°42' E 005°28'1111.4
2014-Aug-22 23:33N 58°54' E 005°32'2 2.3
2014-Aug-22 22:33N 58°55' E 005°35'0 0.0
2014-Aug-22 21:33N 58°55' E 005°35'8 8.4
2014-Aug-22 20:33N 59°03' E 005°32'  
Track history (hours):
 
Tides and Currents Weather Stations Pressure Air Temp Water Temp Dewpoint Dewpoint Depression Visibility Wind Speed Wind Dir Waves Ship Positions

Baltic Betina

Last reported at 2014-Sep-01 20:33 UTC. Time now 2014-Sep-01 21:28 UTC.
Position N 59°09' E 010°22'.

Length 90 m; draft 5 m.

Type: Ship. MMSI: 215869000.

Date/timePositionNaut miles runAvg speedWind from/ knotsBaromVisibWave heightAir tempDewpointWater temp
2014-Sep-01 20:33N 59°09' E 010°22'1010.4
2014-Sep-01 19:33N 59°00' E 010°13'6 5.2
2014-Sep-01 18:26N 59°02' E 010°03'2 2.6
2014-Sep-01 17:33N 59°00' E 010°04'1211.7
2014-Sep-01 16:33N 58°51' E 010°19'4112.5
2014-Sep-01 13:19N 58°17' E 010°59'912.4
2014-Sep-01 12:33N 58°08' E 011°07'1312.6
2014-Sep-01 11:33N 57°57' E 011°17'1312.8
2014-Sep-01 10:33N 57°45' E 011°27'1312.9
2014-Sep-01 09:33N 57°33' E 011°37'1312.7
2014-Sep-01 08:33N 57°22' E 011°47'1312.5
2014-Sep-01 07:33N 57°10' E 011°56'1412.5
2014-Sep-01 06:26N 56°57' E 012°03'1112.2
2014-Sep-01 05:33N 56°47' E 012°09'1211.7
2014-Sep-01 04:33N 56°35' E 012°15'1211.8
2014-Sep-01 03:33N 56°24' E 012°21'1212.1
2014-Sep-01 02:33N 56°13' E 012°28'1313.1
2014-Sep-01 01:33N 56°01' E 012°41'1212.0
2014-Sep-01 00:33N 55°49' E 012°43'1212.1
2014-Aug-31 23:33N 55°37' E 012°42'1211.8
2014-Aug-31 22:33N 55°26' E 012°42'1211.4
2014-Aug-31 21:33N 55°14' E 012°40'1211.8
2014-Aug-31 20:33N 55°08' E 012°57'1512.0
2014-Aug-31 19:15N 54°59' E 013°20'912.2
2014-Aug-31 18:33N 54°52' E 013°28'1211.8
2014-Aug-31 17:33N 54°42' E 013°39'1211.9
2014-Aug-31 16:33N 54°32' E 013°49'1211.6
2014-Aug-31 15:33N 54°22' E 013°59'1211.5
2014-Aug-31 14:33N 54°12' E 014°10'1111.2
2014-Aug-31 13:33N 54°01' E 014°15'8 7.6
2014-Aug-31 12:33N 53°54' E 014°16'0 0.0
2014-Aug-31 11:31N 53°54' E 014°16'0 0.0
2014-Aug-31 10:31N 53°54' E 014°16'3 3.6
2014-Aug-31 09:34N 53°50' E 014°18'1110.6
2014-Aug-31 08:33N 53°42' E 014°29'1210.8
2014-Aug-31 07:29N 53°32' E 014°38'5 5.9
2014-Aug-31 06:33N 53°27' E 014°35'0 0.0
2014-Aug-31 05:33N 53°27' E 014°35'0 0.0
2014-Aug-31 04:33N 53°27' E 014°35'0 0.0
2014-Aug-31 03:33N 53°27' E 014°35'0 0.0
2014-Aug-31 02:33N 53°27' E 014°35'0 0.1
2014-Aug-31 01:33N 53°27' E 014°35'6 5.8
2014-Aug-31 00:33N 53°32' E 014°38'1010.1
2014-Aug-30 23:33N 53°41' E 014°30'1010.5
2014-Aug-30 22:33N 53°49' E 014°19'7 6.6
2014-Aug-30 21:33N 53°56' E 014°17'1010.2
2014-Aug-30 20:33N 54°05' E 014°23'1211.7
2014-Aug-30 19:32N 54°14' E 014°36'1211.6
2014-Aug-30 18:30N 54°24' E 014°49'1312.0
2014-Aug-30 17:26N 54°34' E 015°03'2411.9
2014-Aug-30 15:24N 54°52' E 015°30'1011.7
2014-Aug-30 14:30N 55°01' E 015°41'14211.8
2014-Aug-30 02:28N 56°50' E 018°24'1212.1
2014-Aug-30 01:30N 56°59' E 018°38'1512.5
2014-Aug-30 00:18N 57°11' E 018°54'198 8.7
2014-Aug-29 01:32N 59°23' E 023°36'  
2014-Aug-25 04:27N 57°36' E 017°58'2412.7
2014-Aug-25 02:33N 57°14' E 017°39'2613.0
2014-Aug-25 00:31N 56°49' E 017°21'5412.7
2014-Aug-24 20:18N 56°01' E 016°38'1013.1
2014-Aug-24 19:33N 55°56' E 016°23'4412.7
2014-Aug-24 16:08N 55°35' E 015°16'713.1
2014-Aug-24 15:33N 55°31' E 015°05'1313.0
2014-Aug-24 14:33N 55°24' E 014°45'1312.9
2014-Aug-24 13:32N 55°16' E 014°27'3712.4
2014-Aug-24 10:33N 55°13' E 013°23'1413.5
2014-Aug-24 09:33N 55°14' E 012°59'1212.5
2014-Aug-24 08:34N 55°19' E 012°39'1212.1
2014-Aug-24 07:33N 55°31' E 012°42'1212.3
2014-Aug-24 06:33N 55°43' E 012°41'1212.3
2014-Aug-24 05:33N 55°55' E 012°38'1111.4
2014-Aug-24 04:33N 56°06' E 012°33'1312.6
2014-Aug-24 03:33N 56°12' E 012°13'7911.2
2014-Aug-23 20:29N 57°14' E 010°43'1112.1
2014-Aug-23 19:33N 57°25' E 010°44'155 9.7
2014-Aug-23 03:33N 58°16' E 006°09'1111.2
2014-Aug-23 02:33N 58°24' E 005°53'1111.3
2014-Aug-23 01:33N 58°32' E 005°38'1211.6
2014-Aug-23 00:33N 58°42' E 005°28'1111.4
2014-Aug-22 23:33N 58°54' E 005°32'2 2.3
2014-Aug-22 22:33N 58°55' E 005°35'0 0.0
2014-Aug-22 21:33N 58°55' E 005°35'8 8.4
2014-Aug-22 20:33N 59°03' E 005°32'  

Dump ship's entire track history